Airport ICAO


20:15 UTC

23°C

clear sky

regional weather

An affordable passengers' Moving Map for your aircraft. Made for the iPad and the iPhone
More information here

LFPB Le Bourget


Paris FRANCE   


TAF LFPB 161700Z 1618/1718 30006KT CAVOK PROB30 TEMPO 1618/1620 FEW050CB 3h15min





NOTAMS

OPEN